Search for airport 
image banner adimage banner adimage banner ad
image banner ad

94CA - Kaiser Hospital

Located in Fontana, United States

ICAO - 94CA, IATA -

Data provided by Airmate  

General information

Coordinates: N34°4'21" W117°25'57"
Elevation is 1214 feet MSL.
Magnetic variation is 14° East
View others Airports in California

Operational data

Special qualification required
Current time UTC:
Current local time:
Weather at : KRAL - Riverside Muni ( 13 km )
METAR: KRAL 211153Z AUTO 28004KT 10SM CLR 16/13 A2995 RMK AO2 SLP125 T01560133 10189 20156 53009
View NOTAMs / SUP AIP / TFR affecting this airport [VIEW]
Communications frequencies: [VIEW]

Runways:

Airport contact information

Address: Fontana United States

Satellite view of 94CA